createdAt,value
2022-10-19T00:00:04.219Z,6.87
2022-10-19T00:02:54.840Z,6.79
2022-10-19T00:05:24.274Z,6.72
2022-10-19T00:07:55.770Z,6.62
2022-10-19T00:10:26.705Z,6.56
2022-10-19T00:12:57.770Z,6.52
2022-10-19T00:15:28.704Z,6.50
2022-10-19T00:18:00.093Z,6.47
2022-10-19T00:20:30.963Z,6.43
2022-10-19T00:23:01.788Z,6.38
2022-10-19T00:25:32.820Z,6.34
2022-10-19T00:28:03.889Z,6.29
2022-10-19T00:30:40.625Z,6.24
2022-10-19T00:33:21.869Z,6.19
2022-10-19T00:35:53.940Z,6.16
2022-10-19T00:38:25.193Z,6.13
2022-10-19T00:40:56.201Z,6.08
2022-10-19T00:43:31.793Z,6.04
2022-10-19T00:46:02.532Z,6.02
2022-10-19T00:48:35.058Z,5.99
2022-10-19T00:51:06.486Z,5.94
2022-10-19T00:53:38.440Z,5.92
2022-10-19T00:56:14.106Z,5.87
2022-10-19T00:58:46.508Z,5.80
2022-10-19T01:01:21.201Z,5.78
2022-10-19T01:03:51.979Z,5.73
2022-10-19T01:06:24.513Z,5.72
2022-10-19T01:08:55.540Z,5.68
2022-10-19T01:11:39.778Z,5.67
2022-10-19T01:14:27.107Z,5.65
2022-10-19T01:17:06.304Z,5.63
2022-10-19T01:20:20.510Z,5.62
2022-10-19T01:23:06.827Z,5.61
2022-10-19T01:25:49.665Z,5.60
2022-10-19T01:28:40.411Z,5.58
2022-10-19T01:31:23.505Z,5.55
2022-10-19T01:34:01.134Z,5.52
2022-10-19T01:36:41.489Z,5.51
2022-10-19T01:39:18.753Z,5.50
2022-10-19T01:42:00.006Z,5.48
2022-10-19T01:44:37.707Z,5.48
2022-10-19T01:47:12.944Z,5.48
2022-10-19T01:49:48.425Z,5.49
2022-10-19T01:52:22.765Z,5.49
2022-10-19T01:55:04.222Z,5.48
2022-10-19T01:57:38.243Z,5.46
2022-10-19T02:00:12.472Z,5.45
2022-10-19T02:02:47.536Z,5.42
2022-10-19T02:05:21.576Z,5.39
2022-10-19T02:07:56.042Z,5.38
2022-10-19T02:10:28.787Z,5.36
2022-10-19T02:13:01.025Z,5.35
2022-10-19T02:15:35.775Z,5.34
2022-10-19T02:18:08.267Z,5.34
2022-10-19T02:20:39.442Z,5.33
2022-10-19T02:23:10.703Z,5.32
2022-10-19T02:25:41.758Z,5.31
2022-10-19T02:28:12.749Z,5.32
2022-10-19T02:30:42.522Z,5.33
2022-10-19T02:33:13.655Z,5.31
2022-10-19T02:35:44.940Z,5.31
2022-10-19T02:38:20.918Z,5.31
2022-10-19T02:40:59.607Z,5.32
2022-10-19T02:43:34.468Z,5.32
2022-10-19T02:46:09.264Z,5.31
2022-10-19T02:48:41.584Z,5.30
2022-10-19T02:51:35.981Z,5.27
2022-10-19T02:54:08.891Z,5.25
2022-10-19T02:56:39.739Z,5.24
2022-10-19T02:59:10.494Z,5.24
2022-10-19T03:01:41.416Z,5.25
2022-10-19T03:04:12.476Z,5.25
2022-10-19T03:06:43.443Z,5.25
2022-10-19T03:09:14.173Z,5.17
2022-10-19T03:11:45.119Z,5.12
2022-10-19T03:14:16.071Z,5.10
2022-10-19T03:16:47.459Z,5.11
2022-10-19T03:19:18.389Z,5.13
2022-10-19T03:21:49.686Z,5.14
2022-10-19T03:24:20.763Z,5.16
2022-10-19T03:26:51.670Z,5.18
2022-10-19T03:29:22.652Z,5.21
2022-10-19T03:31:53.873Z,5.24
2022-10-19T03:34:24.769Z,5.26
2022-10-19T03:36:56.732Z,5.27
2022-10-19T03:39:27.899Z,5.28
2022-10-19T03:41:58.819Z,5.30
2022-10-19T03:44:28.467Z,5.26
2022-10-19T03:46:59.442Z,5.25
2022-10-19T03:49:30.477Z,5.23
2022-10-19T03:52:01.553Z,5.19
2022-10-19T03:54:32.985Z,5.14
2022-10-19T03:57:04.271Z,5.14
2022-10-19T03:59:34.999Z,5.13
2022-10-19T04:02:06.683Z,5.13
2022-10-19T04:04:37.940Z,5.13
2022-10-19T04:07:08.814Z,5.15
2022-10-19T04:09:40.411Z,5.14
2022-10-19T04:12:11.427Z,5.09
2022-10-19T04:14:58.068Z,5.03
2022-10-19T04:17:29.499Z,4.96
2022-10-19T04:20:00.329Z,4.93
2022-10-19T04:22:31.522Z,4.91
2022-10-19T04:25:02.289Z,4.87
2022-10-19T04:27:33.378Z,4.82
2022-10-19T04:30:04.876Z,4.80
2022-10-19T04:32:36.024Z,4.74
2022-10-19T04:35:08.413Z,4.69
2022-10-19T04:37:39.713Z,4.65
2022-10-19T04:40:15.028Z,4.61
2022-10-19T04:42:46.387Z,4.58
2022-10-19T04:45:17.921Z,4.55
2022-10-19T04:47:49.032Z,4.51
2022-10-19T04:50:20.106Z,4.49
2022-10-19T04:52:50.966Z,4.44
2022-10-19T04:55:21.908Z,4.40
2022-10-19T04:57:53.047Z,4.37
2022-10-19T05:00:24.140Z,4.34
2022-10-19T05:02:55.023Z,4.31
2022-10-19T05:05:26.793Z,4.27
2022-10-19T05:07:57.638Z,4.24
2022-10-19T05:10:28.895Z,4.22
2022-10-19T05:12:58.280Z,4.18
2022-10-19T05:15:29.318Z,4.15
2022-10-19T05:18:00.515Z,4.12
2022-10-19T05:20:31.233Z,4.09
2022-10-19T05:23:06.249Z,4.05
2022-10-19T05:25:38.470Z,4.01
2022-10-19T05:28:09.366Z,3.97
2022-10-19T05:30:40.113Z,3.89
2022-10-19T05:33:10.879Z,3.81
2022-10-19T05:35:41.789Z,3.72
2022-10-19T05:38:12.838Z,3.64
2022-10-19T05:40:52.879Z,3.62
2022-10-19T05:43:24.826Z,3.63
2022-10-19T05:45:55.938Z,3.64
2022-10-19T05:48:28.088Z,3.67
2022-10-19T05:50:59.066Z,3.70
2022-10-19T05:53:30.544Z,3.71
2022-10-19T05:56:01.469Z,3.71
2022-10-19T05:58:32.815Z,3.71
2022-10-19T06:01:04.144Z,3.76
2022-10-19T06:03:35.612Z,3.81
2022-10-19T06:06:07.704Z,3.84
2022-10-19T06:08:39.438Z,3.91
2022-10-19T06:11:12.616Z,4.00
2022-10-19T06:13:45.098Z,4.13
2022-10-19T06:16:17.888Z,4.25
2022-10-19T06:18:49.002Z,4.40
2022-10-19T06:21:21.775Z,4.54
2022-10-19T06:23:54.918Z,4.68
2022-10-19T06:26:27.063Z,4.82
2022-10-19T06:29:00.674Z,4.94
2022-10-19T06:31:33.680Z,5.05
2022-10-19T06:34:05.255Z,5.19
2022-10-19T06:36:36.642Z,5.33
2022-10-19T06:39:07.952Z,5.47
2022-10-19T06:41:38.950Z,5.59
2022-10-19T06:44:10.228Z,5.70
2022-10-19T06:46:39.600Z,5.81
2022-10-19T06:49:13.488Z,5.91
2022-10-19T06:51:44.423Z,6.01
2022-10-19T06:54:15.138Z,6.08
2022-10-19T06:56:46.162Z,6.15
2022-10-19T06:59:17.707Z,6.27
2022-10-19T07:01:48.636Z,6.38
2022-10-19T07:04:19.520Z,6.49
2022-10-19T07:06:50.392Z,6.60
2022-10-19T07:09:22.499Z,6.70
2022-10-19T07:11:53.348Z,6.80
2022-10-19T07:14:25.531Z,6.92
2022-10-19T07:16:56.687Z,7.05
2022-10-19T07:19:29.784Z,7.16
2022-10-19T07:22:00.849Z,7.31
2022-10-19T07:24:31.975Z,7.46
2022-10-19T07:27:02.817Z,7.62
2022-10-19T07:29:33.939Z,7.80
2022-10-19T07:32:05.351Z,7.97
2022-10-19T07:34:36.038Z,8.16
2022-10-19T07:37:09.524Z,8.38
2022-10-19T07:39:38.865Z,8.63
2022-10-19T07:42:10.009Z,8.83
2022-10-19T07:44:40.943Z,9.03
2022-10-19T07:47:11.977Z,9.19
2022-10-19T07:49:42.981Z,9.36
2022-10-19T07:52:13.997Z,9.50
2022-10-19T07:54:46.799Z,9.62
2022-10-19T07:57:18.032Z,9.74
2022-10-19T07:59:48.908Z,9.82
2022-10-19T08:02:20.481Z,9.90
2022-10-19T08:05:09.235Z,9.97
2022-10-19T08:07:42.150Z,9.99
2022-10-19T08:10:11.775Z,10.02
2022-10-19T08:12:42.715Z,10.07
2022-10-19T08:15:13.829Z,10.17
2022-10-19T08:17:44.810Z,10.28
2022-10-19T08:20:15.673Z,10.40
2022-10-19T08:22:46.983Z,10.53
2022-10-19T08:25:18.210Z,10.67
2022-10-19T08:27:48.978Z,10.77
2022-10-19T08:30:20.228Z,10.83
2022-10-19T08:32:51.199Z,10.89
2022-10-19T08:35:20.396Z,10.88
2022-10-19T08:37:52.060Z,10.86
2022-10-19T08:40:27.212Z,10.90
2022-10-19T08:43:02.818Z,10.94
2022-10-19T08:45:42.783Z,11.01
2022-10-19T08:48:32.926Z,11.05
2022-10-19T08:51:04.367Z,11.13
2022-10-19T08:53:42.884Z,11.15
2022-10-19T08:56:45.700Z,11.18
2022-10-19T08:59:20.949Z,11.19
2022-10-19T09:01:56.053Z,11.20
2022-10-19T09:04:32.200Z,11.21
2022-10-19T09:07:24.525Z,11.25
2022-10-19T09:09:59.119Z,11.26
2022-10-19T09:12:41.476Z,11.28
2022-10-19T09:15:19.104Z,11.31
2022-10-19T09:17:50.328Z,11.35
2022-10-19T09:20:24.315Z,11.37
2022-10-19T09:23:02.138Z,11.40
2022-10-19T09:25:38.750Z,11.40
2022-10-19T09:28:39.862Z,11.40
2022-10-19T09:31:16.514Z,11.46
2022-10-19T09:33:52.792Z,11.56
2022-10-19T09:36:39.289Z,11.60
2022-10-19T09:39:16.765Z,11.62
2022-10-19T09:41:52.336Z,11.66
2022-10-19T09:44:24.407Z,11.68
2022-10-19T09:47:04.383Z,11.70
2022-10-19T09:49:46.302Z,11.69
2022-10-19T09:52:35.365Z,11.69
2022-10-19T09:55:18.892Z,11.70
2022-10-19T09:57:51.243Z,11.73
2022-10-19T10:00:24.461Z,11.73
2022-10-19T10:02:56.869Z,11.73
2022-10-19T10:05:34.263Z,11.73
2022-10-19T10:08:03.869Z,11.73
2022-10-19T10:10:44.100Z,11.70
2022-10-19T10:13:20.768Z,11.69
2022-10-19T10:15:56.897Z,11.66
2022-10-19T10:18:29.714Z,11.61
2022-10-19T10:21:06.067Z,11.54
2022-10-19T10:23:38.278Z,11.55
2022-10-19T10:26:19.949Z,11.56
2022-10-19T10:28:52.060Z,11.58
2022-10-19T10:31:27.341Z,11.56
2022-10-19T10:34:12.229Z,11.56
2022-10-19T10:36:56.530Z,11.54
2022-10-19T10:39:28.859Z,11.53
2022-10-19T10:42:06.332Z,11.52
2022-10-19T10:44:39.212Z,11.55
2022-10-19T10:47:18.042Z,11.61
2022-10-19T10:49:57.942Z,11.69
2022-10-19T10:52:32.028Z,11.76
2022-10-19T10:55:05.971Z,11.78
2022-10-19T10:57:41.196Z,11.77
2022-10-19T11:00:15.467Z,11.79
2022-10-19T11:02:52.640Z,11.84
2022-10-19T11:05:26.797Z,11.85
2022-10-19T11:08:04.376Z,11.86
2022-10-19T11:10:40.463Z,11.88
2022-10-19T11:13:19.601Z,11.91
2022-10-19T11:15:56.869Z,11.96
2022-10-19T11:18:31.724Z,11.99
2022-10-19T11:21:10.798Z,12.00
2022-10-19T11:23:55.196Z,11.97
2022-10-19T11:26:43.012Z,11.92
2022-10-19T11:29:35.331Z,11.89
2022-10-19T11:32:13.331Z,11.92
2022-10-19T11:34:58.317Z,11.95
2022-10-19T11:37:45.527Z,11.97
2022-10-19T11:40:28.908Z,11.96
2022-10-19T11:43:07.031Z,11.94
2022-10-19T11:45:49.307Z,11.95
2022-10-19T11:48:43.057Z,11.94
2022-10-19T11:51:22.156Z,11.96
2022-10-19T11:54:10.020Z,11.95
2022-10-19T11:57:03.231Z,11.91
2022-10-19T11:59:46.266Z,11.89
2022-10-19T12:02:39.540Z,11.88
2022-10-19T12:05:17.294Z,11.86
2022-10-19T12:07:58.044Z,11.85
2022-10-19T12:10:35.395Z,11.86
2022-10-19T12:13:11.951Z,11.83
2022-10-19T12:15:47.570Z,11.79
2022-10-19T12:18:24.937Z,11.73
2022-10-19T12:20:59.797Z,11.70
2022-10-19T12:23:33.661Z,11.71
2022-10-19T12:26:08.565Z,11.76
2022-10-19T12:28:44.208Z,11.76
2022-10-19T12:31:16.204Z,11.73
2022-10-19T12:33:54.567Z,11.74
2022-10-19T12:36:38.533Z,11.76
2022-10-19T12:39:19.304Z,11.78
2022-10-19T12:41:54.724Z,11.77
2022-10-19T12:44:43.830Z,11.73
2022-10-19T12:47:18.928Z,11.69
2022-10-19T12:49:55.643Z,11.63
2022-10-19T12:52:46.110Z,11.62
2022-10-19T12:55:34.930Z,11.66
2022-10-19T12:58:22.858Z,11.70
2022-10-19T13:01:03.336Z,11.73
2022-10-19T13:03:37.980Z,11.74
2022-10-19T13:06:13.856Z,11.76
2022-10-19T13:08:48.675Z,11.79
2022-10-19T13:11:20.606Z,11.80
2022-10-19T13:13:58.605Z,11.78
2022-10-19T13:17:02.254Z,11.72
2022-10-19T13:19:33.267Z,11.69
2022-10-19T13:22:30.109Z,11.67
2022-10-19T13:25:28.248Z,11.61
2022-10-19T13:28:23.195Z,11.62
2022-10-19T13:31:23.321Z,11.64
2022-10-19T13:33:55.688Z,11.59
2022-10-19T13:36:27.753Z,11.54
2022-10-19T13:39:14.768Z,11.50
2022-10-19T13:41:51.703Z,11.46
2022-10-19T13:44:34.023Z,11.42
2022-10-19T13:47:33.156Z,11.38
2022-10-19T13:50:36.508Z,11.33
2022-10-19T13:53:24.699Z,11.29
2022-10-19T13:56:16.426Z,11.27
2022-10-19T13:59:32.162Z,11.24
2022-10-19T14:02:54.053Z,11.18
2022-10-19T14:08:31.500Z,11.06
2022-10-19T14:11:06.544Z,11.02
2022-10-19T14:13:37.648Z,10.98
2022-10-19T14:16:18.446Z,10.96
2022-10-19T14:18:56.556Z,10.98
2022-10-19T14:21:37.985Z,10.99
2022-10-19T14:24:22.633Z,10.99
2022-10-19T14:26:54.225Z,11.00
2022-10-19T14:29:25.195Z,10.98
2022-10-19T14:31:56.211Z,10.95
2022-10-19T14:34:27.249Z,10.96
2022-10-19T14:36:58.273Z,10.94
2022-10-19T14:39:33.434Z,10.93
2022-10-19T14:42:12.768Z,10.95
2022-10-19T14:44:45.722Z,10.97
2022-10-19T14:47:27.195Z,11.09
2022-10-19T14:49:58.434Z,11.82
2022-10-19T14:52:33.922Z,12.56
2022-10-19T14:55:12.669Z,13.07
2022-10-19T14:57:51.732Z,13.45
2022-10-19T15:03:05.763Z,13.88
2022-10-19T15:05:42.527Z,14.04
2022-10-19T15:08:22.147Z,14.23
2022-10-19T15:10:53.500Z,14.20
2022-10-19T15:13:30.498Z,13.88
2022-10-19T15:16:01.244Z,13.51
2022-10-19T15:18:55.438Z,13.23
2022-10-19T15:21:27.290Z,13.26
2022-10-19T15:24:09.366Z,13.35
2022-10-19T15:26:40.282Z,13.36
2022-10-19T15:29:20.404Z,13.25
2022-10-19T15:31:56.383Z,13.18
2022-10-19T15:34:30.919Z,13.00
2022-10-19T15:37:03.583Z,12.77
2022-10-19T15:39:41.141Z,12.54
2022-10-19T15:42:37.864Z,12.32
2022-10-19T15:45:36.260Z,12.11
2022-10-19T15:48:30.057Z,11.90
2022-10-19T15:51:01.105Z,11.70
2022-10-19T15:53:30.502Z,11.50
2022-10-19T15:58:38.114Z,11.09
2022-10-19T16:01:11.070Z,10.87
2022-10-19T16:03:42.029Z,10.60
2022-10-19T16:06:13.995Z,10.36
2022-10-19T16:08:46.226Z,10.12
2022-10-19T16:11:19.093Z,9.89
2022-10-19T16:13:50.120Z,9.68
2022-10-19T16:16:24.983Z,9.49
2022-10-19T16:18:56.272Z,9.31
2022-10-19T16:21:30.304Z,9.11
2022-10-19T16:24:01.691Z,8.97
2022-10-19T16:26:33.184Z,8.80
2022-10-19T16:29:04.114Z,8.62
2022-10-19T16:31:35.169Z,8.48
2022-10-19T16:34:06.507Z,8.34
2022-10-19T16:36:37.542Z,8.20
2022-10-19T16:39:08.375Z,8.06
2022-10-19T16:44:14.318Z,7.74
2022-10-19T16:46:45.263Z,7.59
2022-10-19T16:49:15.099Z,7.48
2022-10-19T16:51:45.869Z,7.34
2022-10-19T16:54:17.714Z,7.22
2022-10-19T16:56:50.162Z,7.09
2022-10-19T16:59:21.566Z,6.98
2022-10-19T17:01:53.936Z,6.86
2022-10-19T17:04:26.159Z,6.76
2022-10-19T17:06:57.665Z,6.68
2022-10-19T17:09:44.284Z,6.60
2022-10-19T17:12:16.068Z,6.51
2022-10-19T17:14:47.215Z,6.42
2022-10-19T17:17:18.150Z,6.35
2022-10-19T17:19:49.344Z,6.24
2022-10-19T17:22:20.242Z,6.15
2022-10-19T17:24:51.213Z,6.07
2022-10-19T17:27:20.707Z,5.96
2022-10-19T17:29:52.079Z,5.85
2022-10-19T17:32:23.027Z,5.75
2022-10-19T17:34:56.059Z,5.64
2022-10-19T17:37:26.922Z,5.53
2022-10-19T17:39:58.208Z,5.45
2022-10-19T17:42:29.114Z,5.39
2022-10-19T17:45:00.285Z,5.33
2022-10-19T17:47:31.598Z,5.27
2022-10-19T17:50:02.878Z,5.21
2022-10-19T17:52:33.933Z,5.16
2022-10-19T17:55:12.286Z,5.09
2022-10-19T17:57:43.964Z,5.05
2022-10-19T18:00:16.327Z,5.00
2022-10-19T18:02:48.898Z,4.95
2022-10-19T18:05:20.622Z,4.89
2022-10-19T18:07:53.805Z,4.81
2022-10-19T18:10:24.670Z,4.74
2022-10-19T18:12:55.601Z,4.67
2022-10-19T18:15:26.588Z,4.60
2022-10-19T18:17:57.274Z,4.54
2022-10-19T18:20:28.478Z,4.49
2022-10-19T18:22:59.231Z,4.45
2022-10-19T18:25:42.562Z,4.40
2022-10-19T18:28:21.435Z,4.34
2022-10-19T18:30:52.651Z,4.28
2022-10-19T18:33:23.680Z,4.21
2022-10-19T18:35:58.671Z,4.15
2022-10-19T18:38:29.657Z,4.14
2022-10-19T18:41:04.364Z,4.10
2022-10-19T18:43:35.506Z,4.06
2022-10-19T18:46:07.080Z,4.00
2022-10-19T18:48:39.304Z,3.95
2022-10-19T18:51:10.823Z,3.91
2022-10-19T18:53:41.821Z,3.87
2022-10-19T18:56:15.387Z,3.83
2022-10-19T18:58:46.873Z,3.79
2022-10-19T19:01:20.401Z,3.75
2022-10-19T19:03:52.888Z,3.70
2022-10-19T19:06:25.722Z,3.67
2022-10-19T19:08:58.747Z,3.65
2022-10-19T19:11:34.303Z,3.61
2022-10-19T19:14:12.656Z,3.57
2022-10-19T19:16:44.863Z,3.53
2022-10-19T19:19:17.477Z,3.49
2022-10-19T19:21:49.839Z,3.49
2022-10-19T19:24:22.955Z,3.48
2022-10-19T19:26:55.959Z,3.48
2022-10-19T19:29:27.998Z,3.48
2022-10-19T19:31:58.980Z,3.48
2022-10-19T19:34:29.871Z,3.49
2022-10-19T19:37:00.883Z,3.50
2022-10-19T19:39:32.217Z,3.47
2022-10-19T19:42:03.414Z,3.42
2022-10-19T19:44:34.920Z,3.37
2022-10-19T19:47:05.958Z,3.32
2022-10-19T19:49:37.026Z,3.26
2022-10-19T19:52:08.399Z,3.21
2022-10-19T19:54:37.913Z,3.19
2022-10-19T19:57:08.912Z,3.12
2022-10-19T19:59:39.983Z,3.07
2022-10-19T20:02:11.794Z,3.02
2022-10-19T20:04:43.083Z,2.97
2022-10-19T20:07:14.218Z,2.93
2022-10-19T20:09:45.181Z,2.90
2022-10-19T20:12:16.006Z,2.88
2022-10-19T20:14:47.235Z,2.85
2022-10-19T20:17:23.560Z,2.84
2022-10-19T20:19:54.358Z,2.80
2022-10-19T20:22:26.185Z,2.77
2022-10-19T20:24:57.148Z,2.73
2022-10-19T20:27:28.226Z,2.68
2022-10-19T20:29:59.412Z,2.66
2022-10-19T20:32:31.262Z,2.62
2022-10-19T20:35:03.657Z,2.56
2022-10-19T20:37:34.622Z,2.49
2022-10-19T20:40:08.526Z,2.38
2022-10-19T20:42:42.412Z,2.28
2022-10-19T20:45:14.084Z,2.21
2022-10-19T20:47:44.930Z,2.13
2022-10-19T20:50:17.082Z,2.03
2022-10-19T20:52:50.350Z,1.97
2022-10-19T20:55:22.103Z,1.95
2022-10-19T20:57:53.017Z,1.95
2022-10-19T21:00:24.081Z,1.95
2022-10-19T21:02:55.611Z,1.95
2022-10-19T21:05:24.895Z,1.92
2022-10-19T21:07:56.698Z,1.88
2022-10-19T21:10:27.603Z,1.86
2022-10-19T21:12:58.888Z,1.86
2022-10-19T21:15:30.039Z,1.83
2022-10-19T21:18:00.860Z,1.81
2022-10-19T21:20:31.753Z,1.78
2022-10-19T21:23:02.529Z,1.75
2022-10-19T21:25:33.451Z,1.72
2022-10-19T21:28:04.363Z,1.69
2022-10-19T21:30:36.471Z,1.68
2022-10-19T21:33:07.395Z,1.67
2022-10-19T21:35:39.586Z,1.66
2022-10-19T21:38:10.611Z,1.67
2022-10-19T21:40:41.449Z,1.67
2022-10-19T21:43:12.798Z,1.66
2022-10-19T21:45:44.710Z,1.64
2022-10-19T21:48:18.540Z,1.62
2022-10-19T21:50:50.029Z,1.61
2022-10-19T21:53:25.715Z,1.60
2022-10-19T21:56:00.288Z,1.56
2022-10-19T21:58:31.055Z,1.55
2022-10-19T22:01:07.678Z,1.53
2022-10-19T22:03:38.702Z,1.50
2022-10-19T22:06:10.580Z,1.46
2022-10-19T22:08:44.782Z,1.42
2022-10-19T22:11:16.752Z,1.37
2022-10-19T22:13:47.652Z,1.29
2022-10-19T22:16:20.288Z,1.18
2022-10-19T22:18:51.995Z,1.12
2022-10-19T22:21:24.832Z,1.08
2022-10-19T22:23:57.847Z,1.06
2022-10-19T22:26:31.499Z,1.05
2022-10-19T22:29:03.672Z,1.05
2022-10-19T22:31:35.106Z,1.07
2022-10-19T22:34:08.440Z,1.08
2022-10-19T22:36:39.384Z,1.09
2022-10-19T22:39:10.730Z,1.08
2022-10-19T22:42:34.630Z,1.10
2022-10-19T22:45:24.118Z,1.12
2022-10-19T22:48:35.698Z,1.14
2022-10-19T22:51:41.667Z,1.17
2022-10-19T22:54:12.576Z,1.19
2022-10-19T22:56:43.977Z,1.20
2022-10-19T22:59:15.087Z,1.20
2022-10-19T23:01:46.104Z,1.23
2022-10-19T23:04:17.208Z,1.22
2022-10-19T23:06:48.439Z,1.20
2022-10-19T23:09:19.861Z,1.18
2022-10-19T23:11:50.803Z,1.16
2022-10-19T23:14:21.708Z,1.13
2022-10-19T23:16:52.692Z,1.12
2022-10-19T23:19:23.899Z,1.11
2022-10-19T23:21:54.605Z,1.10
2022-10-19T23:24:25.724Z,1.10
2022-10-19T23:26:56.967Z,1.08
2022-10-19T23:29:28.401Z,1.07
2022-10-19T23:31:59.430Z,1.07
2022-10-19T23:34:30.467Z,1.06
2022-10-19T23:37:01.334Z,1.03
2022-10-19T23:39:32.319Z,0.96
2022-10-19T23:42:03.205Z,0.89
2022-10-19T23:44:34.253Z,0.84
2022-10-19T23:47:05.272Z,0.82
2022-10-19T23:49:36.175Z,0.81
2022-10-19T23:52:07.370Z,0.77
2022-10-19T23:54:38.381Z,0.80
2022-10-19T23:57:09.250Z,0.82
2022-10-19T23:59:40.248Z,0.82
